GW0011 Weather Reports


Display with metric or nautical units.
time (UTC)temp
F
wind
direction
speed
MPH
gust
MPH
rain 1hr
in
rain 24hr
in
rain mn
in
humidity
%
barometer
mb
20210928063105 65 0 2.0 5.0 0.00 0.00 0.00 82 1015.6
20210928061534 66 192 2.0 7.0 0.00 0.00 0.00 80 1015.6
20210928060119 66 155 1.0 7.0 0.00 0.00 0.00 80 1015.7
20210928054611 66 0 2.0 8.0 0.00 0.00 0.00 79 1015.9
20210928053044 66 184 2.0 8.0 0.00 0.00 0.00 78 1015.8
20210928051652 66 129 3.0 9.0 0.00 0.00 0.00 77 1016.1
20210928050103 66 126 3.0 11.0 0.00 0.00 0.00 77 1016.3
20210928044555 67 112 3.0 11.0 0.00 0.00 0.00 76 1016.3
20210928043056 67 129 2.0 10.0 0.00 0.00 0.00 75 1016.4
20210928041624 67 124 4.0 11.0 0.00 0.00 0.00 75 1016.5
20210928040059 67 133 3.0 9.0 0.00 0.00 0.00 74 1016.6
20210928034536 67 159 4.0 10.0 0.00 0.00 0.00 74 1016.5
20210928033343 67 123 2.0 7.0 0.00 0.00 0.00 75 1016.6
20210928031548 67 98 2.0 7.0 0.00 0.00 0.00 73 1016.7
20210928030051 68 0 1.0 7.0 0.00 0.00 0.00 72 1016.6
20210928024551 68 149 2.0 7.0 0.00 0.00 0.00 71 1016.7
20210928023053 68 151 2.0 8.0 0.00 0.00 0.00 70 1016.8
20210928021556 69 169 2.0 9.0 0.00 0.00 0.00 69 1016.7
20210928020103 69 184 2.0 10.0 0.00 0.00 0.00 68 1016.6
20210928014537 69 148 3.0 7.0 0.00 0.00 0.00 68 1016.6
20210928013103 70 0 2.0 5.0 0.00 0.00 0.00 67 1016.7
20210928011549 70 0 0.0 4.0 0.00 0.00 0.00 65 1016.7
20210928010058 70 165 1.0 7.0 0.00 0.00 0.00 64 1016.7
20210928004756 71 174 3.0 6.0 0.00 0.00 0.00 64 1016.7
20210928003122 71 128 1.0 5.0 0.00 0.00 0.00 63 1016.5
20210928001605 72 161 0.0 4.0 0.00 0.00 0.00 62 1016.5
20210928000049 72 0 1.0 6.0 0.00 0.00 0.00 61 1016.5
20210927234601 72 0 0.0 3.0 0.00 0.00 0.00 61 1016.2
20210927233111 72 0 0.0 2.0 0.00 0.00 0.00 61 1016.4
20210927231549 73 136 0.0 1.0 0.00 0.00 0.00 59 1016.3
20210927230048 75 0 0.0 2.0 0.00 0.00 0.00 55 1016.4
20210927224617 76 0 1.0 4.0 0.00 0.00 0.00 53 1016.3
20210927223116 76 0 0.0 6.0 0.00 0.00 0.00 51 1016.4
20210927221604 77 209 2.0 9.0 0.00 0.00 0.00 51 1016.3
20210927220131 77 0 2.0 8.0 0.00 0.00 0.00 50 1016.2
20210927214639 77 138 5.0 11.0 0.00 0.00 0.00 49 1016.2
20210927213049 78 155 4.0 12.0 0.00 0.00 0.00 47 1016.3
20210927211611 79 239 4.0 9.0 0.00 0.00 0.00 46 1016.3
20210927210107 79 0 4.0 9.0 0.00 0.00 0.00 44 1016.2
20210927204600 79 198 3.0 12.0 0.00 0.00 0.00 44 1016.4
20210927203042 80 206 3.0 11.0 0.00 0.00 0.00 43 1016.4
20210927201609 80 175 4.0 12.0 0.00 0.00 0.00 44 1016.4
20210927200116 80 152 2.0 10.0 0.00 0.00 0.00 43 1016.4
20210927194545 80 128 3.0 11.0 0.00 0.00 0.00 42 1016.5
20210927193147 80 254 1.0 14.0 0.00 0.00 0.00 42 1016.8
20210927191610 80 151 4.0 8.0 0.00 0.00 0.00 41 1017.0
20210927190042 80 0 3.0 9.0 0.00 0.00 0.00 42 1017.2
20210927184557 79 265 5.0 12.0 0.00 0.00 0.00 40 1017.5
20210927183123 80 171 4.0 15.0 0.00 0.00 0.00 40 1017.4
20210927181701 79 106 5.0 11.0 0.00 0.00 0.00 42 1017.6
20210927180052 79 152 4.0 10.0 0.00 0.00 0.00 42 1017.9
20210927174543 79 204 6.0 15.0 0.00 0.00 0.00 43 1018.1
20210927173135 79 117 5.0 12.0 0.00 0.00 0.00 43 1018.2
20210927171601 79 153 3.0 14.0 0.00 0.00 0.00 43 1018.4
20210927170120 78 333 3.0 10.0 0.00 0.00 0.00 43 1018.5
20210927164600 78 157 3.0 11.0 0.00 0.00 0.00 44 1018.8
20210927163212 78 157 5.0 12.0 0.00 0.00 0.00 42 1019.0
20210927161629 78 339 3.0 10.0 0.00 0.00 0.00 44 1019.1
20210927160115 77 189 4.0 10.0 0.00 0.00 0.00 47 1019.2
20210927154624 77 215 4.0 10.0 0.00 0.00 0.00 48 1019.5
20210927153106 76 213 3.0 8.0 0.00 0.00 0.00 51 1019.6
20210927151609 74 223 4.0 11.0 0.00 0.00 0.00 52 1019.8
20210927150117 74 155 4.0 9.0 0.00 0.00 0.00 54 1019.8
20210927144738 72 279 2.0 10.0 0.00 0.00 0.00 55 1019.9
20210927143126 72 302 2.0 10.0 0.00 0.00 0.00 56 1019.9
20210927141558 71 167 3.0 8.0 0.00 0.00 0.00 57 1020.1
20210927140128 71 342 2.0 6.0 0.00 0.00 0.00 57 1020.1
20210927134546 71 124 1.0 3.0 0.00 0.00 0.00 61 1020.1
20210927133056 68 330 1.0 7.0 0.00 0.00 0.00 62 1020.1
20210927131548 68 146 1.0 4.0 0.00 0.00 0.00 64 1020.0
20210927130224 66 0 0.0 4.0 0.00 0.00 0.00 66 1020.1
20210927124554 65 0 0.0 4.0 0.00 0.00 0.00 68 1020.1
20210927123147 64 0 1.0 3.0 0.00 0.00 0.00 70 1019.9
20210927121615 62 0 0.0 2.0 0.00 0.00 0.00 73 1019.9
20210927120217 61 0 0.0 2.0 0.00 0.00 0.00 75 1019.9
20210927114605 60 0 0.0 2.0 0.00 0.00 0.00 77 1020.0
20210927113054 58 0 0.0 1.0 0.00 0.00 0.00 82 1019.8
20210927111617 57 0 0.0 0.0 0.00 0.00 0.00 82 1019.6
20210927110039 57 0 0.0 1.0 0.00 0.00 0.00 82 1019.6
20210927104558 57 0 0.0 1.0 0.00 0.00 0.00 82 1019.6
20210927103035 57 0 0.0 0.0 0.00 0.00 0.00 83 1019.3
20210927101559 56 0 0.0 0.0 0.00 0.00 0.00 84 1019.3
20210927100131 56 0 0.0 0.0 0.00 0.00 0.00 84 1019.2
20210927094640 56 0 0.0 0.0 0.00 0.00 0.00 87 1019.1
20210927093125 56 0 0.0 0.0 0.00 0.00 0.00 89 1018.9
20210927091553 56 0 0.0 0.0 0.00 0.00 0.00 88 1019.0
20210927090041 56 0 0.0 0.0 0.00 0.00 0.00 88 1018.8
20210927084608 56 0 0.0 0.0 0.00 0.00 0.00 88 1018.7
20210927083152 56 0 0.0 0.0 0.00 0.00 0.00 88 1018.6
20210927081623 56 0 0.0 0.0 0.00 0.00 0.00 88 1018.6
20210927080101 57 0 0.0 0.0 0.00 0.00 0.00 87 1018.6
20210927074639 57 0 0.0 0.0 0.00 0.00 0.00 87 1018.5
20210927073043 57 0 0.0 0.0 0.00 0.00 0.00 86 1018.7
20210927071615 58 0 0.0 0.0 0.00 0.00 0.00 86 1018.7
20210927070057 58 0 0.0 1.0 0.00 0.00 0.00 86 1018.7
20210927064632 58 0 0.0 0.0 0.00 0.00 0.00 86 1018.8